sensor_id;sensor_type;location;lat;lon;timestamp;pressure;altitude;pressure_sealevel;temperature;humidity
20111;BME280;10216;42.658;23.248;2023-06-14T18:59:30;93617.06;;;17.07;nan
20111;BME280;10216;42.658;23.248;2023-06-14T19:01:56;93605.09;;;17.06;nan
20111;BME280;10216;42.658;23.248;2023-06-14T19:04:21;93615.94;;;16.90;nan
20111;BME280;10216;42.658;23.248;2023-06-14T19:06:47;93629.09;;;16.88;nan
20111;BME280;10216;42.658;23.248;2023-06-14T19:09:13;93632.91;;;16.86;nan
20111;BME280;10216;42.658;23.248;2023-06-14T19:11:40;93629.69;;;16.90;nan
20111;BME280;10216;42.658;23.248;2023-06-14T19:14:07;93625.09;;;16.92;nan
20111;BME280;10216;42.658;23.248;2023-06-14T19:16:32;93626.69;;;16.87;nan
20111;BME280;10216;42.658;23.248;2023-06-14T19:18:58;93629.69;;;16.90;nan
20111;BME280;10216;42.658;23.248;2023-06-14T19:21:23;93632.88;;;16.92;nan
20111;BME280;10216;42.658;23.248;2023-06-14T19:23:48;93639.88;;;16.92;nan
20111;BME280;10216;42.658;23.248;2023-06-14T19:26:14;93641.66;;;16.91;nan
20111;BME280;10216;42.658;23.248;2023-06-14T19:28:39;93652.59;;;16.93;nan
20111;BME280;10216;42.658;23.248;2023-06-14T19:31:05;93651.25;;;16.91;nan
20111;BME280;10216;42.658;23.248;2023-06-14T19:33:30;93648.66;;;16.91;nan
20111;BME280;10216;42.658;23.248;2023-06-14T19:35:56;93647.84;;;16.90;nan
20111;BME280;10216;42.658;23.248;2023-06-14T19:38:21;93653.84;;;16.91;nan
20111;BME280;10216;42.658;23.248;2023-06-14T19:40:46;93656.81;;;16.88;nan
20111;BME280;10216;42.658;23.248;2023-06-14T19:43:12;93650.03;;;16.87;nan
20111;BME280;10216;42.658;23.248;2023-06-14T19:45:37;93653.84;;;16.91;nan
20111;BME280;10216;42.658;23.248;2023-06-14T19:48:03;93648.47;;;16.86;nan
20111;BME280;10216;42.658;23.248;2023-06-14T19:50:29;93655.84;;;16.82;nan
20111;BME280;10216;42.658;23.248;2023-06-14T19:52:54;93653.06;;;16.84;nan
20111;BME280;10216;42.658;23.248;2023-06-14T19:55:20;93644.44;;;16.90;nan
20111;BME280;10216;42.658;23.248;2023-06-14T19:57:45;93649.03;;;16.94;nan
20111;BME280;10216;42.658;23.248;2023-06-14T20:00:12;93649.25;;;16.93;nan
20111;BME280;10216;42.658;23.248;2023-06-14T20:02:38;93657.41;;;16.96;nan
20111;BME280;10216;42.658;23.248;2023-06-14T20:05:04;93655.00;;;16.95;nan
20111;BME280;10216;42.658;23.248;2023-06-14T20:07:29;93648.66;;;16.91;nan
20111;BME280;10216;42.658;23.248;2023-06-14T20:09:56;93647.66;;;16.92;nan
20111;BME280;10216;42.658;23.248;2023-06-14T20:12:22;93645.44;;;16.89;nan
20111;BME280;10216;42.658;23.248;2023-06-14T20:14:47;93649.25;;;16.93;nan
20111;BME280;10216;42.658;23.248;2023-06-14T20:17:13;93651.03;;;16.99;nan
20111;BME280;10216;42.658;23.248;2023-06-14T20:19:38;93646.81;;;16.98;nan
20111;BME280;10216;42.658;23.248;2023-06-14T20:22:04;93648.81;;;17.02;nan
20111;BME280;10216;42.658;23.248;2023-06-14T20:24:29;93648.59;;;17.04;nan
20111;BME280;10216;42.658;23.248;2023-06-14T20:26:55;93653.03;;;16.90;nan
20111;BME280;10216;42.658;23.248;2023-06-14T20:29:20;93648.47;;;16.72;nan
20111;BME280;10216;42.658;23.248;2023-06-14T20:31:47;93660.06;;;16.76;nan
20111;BME280;10216;42.658;23.248;2023-06-14T20:34:12;93655.84;;;16.75;nan
20111;BME280;10216;42.658;23.248;2023-06-14T20:36:38;93657.84;;;16.73;nan
20111;BME280;10216;42.658;23.248;2023-06-14T20:39:03;93661.66;;;16.77;nan
20111;BME280;10216;42.658;23.248;2023-06-14T20:41:29;93651.84;;;16.79;nan
20111;BME280;10216;42.658;23.248;2023-06-14T20:43:54;93653.06;;;16.77;nan
20111;BME280;10216;42.658;23.248;2023-06-14T20:46:23;93640.47;;;16.81;nan
20111;BME280;10216;42.658;23.248;2023-06-14T20:48:52;93642.28;;;16.80;nan
20111;BME280;10216;42.658;23.248;2023-06-14T20:51:18;93646.09;;;16.77;nan
20111;BME280;10216;42.658;23.248;2023-06-14T20:53:43;93654.88;;;16.76;nan
20111;BME280;10216;42.658;23.248;2023-06-14T20:56:09;93654.44;;;16.79;nan
20111;BME280;10216;42.658;23.248;2023-06-14T20:58:35;93656.84;;;16.74;nan
20111;BME280;10216;42.658;23.248;2023-06-14T21:01:01;93651.88;;;16.66;nan
20111;BME280;10216;42.658;23.248;2023-06-14T21:03:27;93651.88;;;16.73;nan
20111;BME280;10216;42.658;23.248;2023-06-14T21:05:52;93656.25;;;16.72;nan
20111;BME280;10216;42.658;23.248;2023-06-14T21:08:18;93667.63;;;16.65;nan
20111;BME280;10216;42.658;23.248;2023-06-14T21:10:43;93663.41;;;16.57;nan
20111;BME280;10216;42.658;23.248;2023-06-14T21:13:10;93661.06;;;16.62;nan
20111;BME280;10216;42.658;23.248;2023-06-14T21:15:36;93654.66;;;16.58;nan
20111;BME280;10216;42.658;23.248;2023-06-14T21:18:01;93650.47;;;16.57;nan
20111;BME280;10216;42.658;23.248;2023-06-14T21:20:27;93652.06;;;16.65;nan
20111;BME280;10216;42.658;23.248;2023-06-14T21:22:52;93638.34;;;16.71;nan
20111;BME280;10216;42.658;23.248;2023-06-14T21:25:17;93635.34;;;16.67;nan
20111;BME280;10216;42.658;23.248;2023-06-14T21:27:43;93632.75;;;16.54;nan
20111;BME280;10216;42.658;23.248;2023-06-14T21:30:09;93640.50;;;16.54;nan
20111;BME280;10216;42.658;23.248;2023-06-14T21:32:35;93650.25;;;16.59;nan
20111;BME280;10216;42.658;23.248;2023-06-14T21:35:03;93638.75;;;16.61;nan
20111;BME280;10216;42.658;23.248;2023-06-14T21:37:29;93638.31;;;16.64;nan
20111;BME280;10216;42.658;23.248;2023-06-14T21:39:55;93643.91;;;16.55;nan
20111;BME280;10216;42.658;23.248;2023-06-14T21:42:20;93632.31;;;16.57;nan
20111;BME280;10216;42.658;23.248;2023-06-14T21:44:46;93639.91;;;16.59;nan
20111;BME280;10216;42.658;23.248;2023-06-14T21:47:13;93636.31;;;16.60;nan
20111;BME280;10216;42.658;23.248;2023-06-14T21:49:40;93637.91;;;16.54;nan
20111;BME280;10216;42.658;23.248;2023-06-14T21:52:10;93630.53;;;16.58;nan
20111;BME280;10216;42.658;23.248;2023-06-14T21:54:36;93627.56;;;16.61;nan
20111;BME280;10216;42.658;23.248;2023-06-14T21:57:01;93629.72;;;16.57;nan
20111;BME280;10216;42.658;23.248;2023-06-14T21:59:27;93626.56;;;16.62;nan
20111;BME280;10216;42.658;23.248;2023-06-14T22:01:52;93631.13;;;16.66;nan
20111;BME280;10216;42.658;23.248;2023-06-14T22:04:18;93623.00;;;16.63;nan
20111;BME280;10216;42.658;23.248;2023-06-14T22:06:43;93628.56;;;16.66;nan
20111;BME280;10216;42.658;23.248;2023-06-14T22:09:11;93626.13;;;16.71;nan
20111;BME280;10216;42.658;23.248;2023-06-14T22:11:42;93621.16;;;16.76;nan
20111;BME280;10216;42.658;23.248;2023-06-14T22:14:08;93622.94;;;16.76;nan
20111;BME280;10216;42.658;23.248;2023-06-14T22:16:35;93636.28;;;16.79;nan
20111;BME280;10216;42.658;23.248;2023-06-14T22:19:01;93636.09;;;16.81;nan
20111;BME280;10216;42.658;23.248;2023-06-14T22:21:29;93639.88;;;16.78;nan
20111;BME280;10216;42.658;23.248;2023-06-14T22:23:57;93650.25;;;16.78;nan
20111;BME280;10216;42.658;23.248;2023-06-14T22:26:22;93649.69;;;16.76;nan
20111;BME280;10216;42.658;23.248;2023-06-14T22:28:51;93653.88;;;16.77;nan
20111;BME280;10216;42.658;23.248;2023-06-14T22:31:16;93643.72;;;16.69;nan
20111;BME280;10216;42.658;23.248;2023-06-14T22:33:42;93649.47;;;16.65;nan
20111;BME280;10216;42.658;23.248;2023-06-14T22:36:09;93645.88;;;16.59;nan
20111;BME280;10216;42.658;23.248;2023-06-14T22:38:36;93639.53;;;16.49;nan
20111;BME280;10216;42.658;23.248;2023-06-14T22:41:09;93646.69;;;16.53;nan
20111;BME280;10216;42.658;23.248;2023-06-14T22:43:35;93642.69;;;16.57;nan
20111;BME280;10216;42.658;23.248;2023-06-14T22:46:06;93641.31;;;16.55;nan
20111;BME280;10216;42.658;23.248;2023-06-14T22:48:36;93635.31;;;16.54;nan
20111;BME280;10216;42.658;23.248;2023-06-14T22:51:14;93637.31;;;16.59;nan
20111;BME280;10216;42.658;23.248;2023-06-14T22:53:40;93636.53;;;16.45;nan
20111;BME280;10216;42.658;23.248;2023-06-14T22:56:06;93628.94;;;16.50;nan
20111;BME280;10216;42.658;23.248;2023-06-14T22:58:32;93637.31;;;16.52;nan
20111;BME280;10216;42.658;23.248;2023-06-14T23:00:59;93634.13;;;16.37;nan
20111;BME280;10216;42.658;23.248;2023-06-14T23:03:26;93631.75;;;16.42;nan
20111;BME280;10216;42.658;23.248;2023-06-14T23:05:51;93622.38;;;16.48;nan
20111;BME280;10216;42.658;23.248;2023-06-14T23:08:18;93620.38;;;16.43;nan
20111;BME280;10216;42.658;23.248;2023-06-14T23:10:43;93619.59;;;16.49;nan
20111;BME280;10216;42.658;23.248;2023-06-14T23:13:08;93619.97;;;16.53;nan
20111;BME280;10216;42.658;23.248;2023-06-14T23:15:35;93620.19;;;16.45;nan
20111;BME280;10216;42.658;23.248;2023-06-14T23:18:02;93615.19;;;16.43;nan
20111;BME280;10216;42.658;23.248;2023-06-14T23:20:28;93617.00;;;16.42;nan
20111;BME280;10216;42.658;23.248;2023-06-14T23:22:54;93612.81;;;16.42;nan
20111;BME280;10216;42.658;23.248;2023-06-14T23:25:20;93606.44;;;16.44;nan
20111;BME280;10216;42.658;23.248;2023-06-14T23:27:46;93605.63;;;16.37;nan
20111;BME280;10216;42.658;23.248;2023-06-14T23:30:12;93603.66;;;16.39;nan
20111;BME280;10216;42.658;23.248;2023-06-14T23:32:39;93599.66;;;16.36;nan
20111;BME280;10216;42.658;23.248;2023-06-14T23:35:05;93598.06;;;16.35;nan
20111;BME280;10216;42.658;23.248;2023-06-14T23:37:34;93593.28;;;16.39;nan
20111;BME280;10216;42.658;23.248;2023-06-14T23:40:02;93595.69;;;16.40;nan
20111;BME280;10216;42.658;23.248;2023-06-14T23:42:29;93597.66;;;16.45;nan
20111;BME280;10216;42.658;23.248;2023-06-14T23:44:58;93596.47;;;16.48;nan
20111;BME280;10216;42.658;23.248;2023-06-14T23:47:25;93596.25;;;16.42;nan
20111;BME280;10216;42.658;23.248;2023-06-14T23:49:51;93602.84;;;16.38;nan
20111;BME280;10216;42.658;23.248;2023-06-14T23:52:16;93608.22;;;16.44;nan
20111;BME280;10216;42.658;23.248;2023-06-14T23:54:42;93612.59;;;16.43;nan
20111;BME280;10216;42.658;23.248;2023-06-14T23:57:11;93612.03;;;16.41;nan
20111;BME280;10216;42.658;23.248;2023-06-14T23:59:38;93613.03;;;16.40;nan
